sensor_id;sensor_type;location;lat;lon;timestamp;temperature;humidity
46490;DHT22;32204;49.160;8.580;2022-11-20T00:00:53;6.90;99.90
46490;DHT22;32204;49.160;8.580;2022-11-20T00:03:19;7.00;99.90
46490;DHT22;32204;49.160;8.580;2022-11-20T00:05:45;7.00;99.90
46490;DHT22;32204;49.160;8.580;2022-11-20T00:08:11;6.80;99.90
46490;DHT22;32204;49.160;8.580;2022-11-20T00:10:38;6.60;99.90
46490;DHT22;32204;49.160;8.580;2022-11-20T00:13:04;6.60;99.90
46490;DHT22;32204;49.160;8.580;2022-11-20T00:15:29;6.60;99.90
46490;DHT22;32204;49.160;8.580;2022-11-20T00:17:55;6.60;99.90
46490;DHT22;32204;49.160;8.580;2022-11-20T00:20:20;6.80;99.90
46490;DHT22;32204;49.160;8.580;2022-11-20T00:22:46;6.80;99.90
46490;DHT22;32204;49.160;8.580;2022-11-20T00:25:12;6.70;99.90
46490;DHT22;32204;49.160;8.580;2022-11-20T00:27:37;6.70;99.90
46490;DHT22;32204;49.160;8.580;2022-11-20T00:30:04;6.80;99.90
46490;DHT22;32204;49.160;8.580;2022-11-20T00:32:30;6.90;99.90
46490;DHT22;32204;49.160;8.580;2022-11-20T00:34:56;6.90;99.90
46490;DHT22;32204;49.160;8.580;2022-11-20T00:37:21;6.90;99.90
46490;DHT22;32204;49.160;8.580;2022-11-20T00:39:47;6.80;99.90
46490;DHT22;32204;49.160;8.580;2022-11-20T00:42:12;6.70;99.90
46490;DHT22;32204;49.160;8.580;2022-11-20T00:44:38;6.70;99.90
46490;DHT22;32204;49.160;8.580;2022-11-20T00:47:04;6.60;99.90
46490;DHT22;32204;49.160;8.580;2022-11-20T00:49:29;6.50;99.90
46490;DHT22;32204;49.160;8.580;2022-11-20T00:51:55;6.50;99.90
46490;DHT22;32204;49.160;8.580;2022-11-20T00:54:20;6.60;99.90
46490;DHT22;32204;49.160;8.580;2022-11-20T00:56:46;6.60;99.90
46490;DHT22;32204;49.160;8.580;2022-11-20T00:59:11;6.60;99.90
46490;DHT22;32204;49.160;8.580;2022-11-20T01:01:37;6.60;99.90
46490;DHT22;32204;49.160;8.580;2022-11-20T01:04:03;6.60;99.90
46490;DHT22;32204;49.160;8.580;2022-11-20T01:06:32;6.80;99.90
46490;DHT22;32204;49.160;8.580;2022-11-20T01:08:59;6.90;99.90
46490;DHT22;32204;49.160;8.580;2022-11-20T01:11:30;6.70;99.90
46490;DHT22;32204;49.160;8.580;2022-11-20T01:13:57;6.70;99.90
46490;DHT22;32204;49.160;8.580;2022-11-20T01:16:27;6.70;99.90
46490;DHT22;32204;49.160;8.580;2022-11-20T01:18:55;6.80;99.90
46490;DHT22;32204;49.160;8.580;2022-11-20T01:21:24;6.80;99.90
46490;DHT22;32204;49.160;8.580;2022-11-20T01:23:51;6.80;99.90
46490;DHT22;32204;49.160;8.580;2022-11-20T01:26:22;6.80;99.90
46490;DHT22;32204;49.160;8.580;2022-11-20T01:28:48;6.80;99.90
46490;DHT22;32204;49.160;8.580;2022-11-20T01:31:23;6.70;99.90
46490;DHT22;32204;49.160;8.580;2022-11-20T01:33:51;6.70;99.90
46490;DHT22;32204;49.160;8.580;2022-11-20T01:36:19;6.70;99.90
46490;DHT22;32204;49.160;8.580;2022-11-20T01:38:45;6.80;99.90
46490;DHT22;32204;49.160;8.580;2022-11-20T01:41:12;6.90;99.90
46490;DHT22;32204;49.160;8.580;2022-11-20T01:44:02;6.90;99.90
46490;DHT22;32204;49.160;8.580;2022-11-20T01:46:28;6.90;99.90
46490;DHT22;32204;49.160;8.580;2022-11-20T01:51:30;6.90;99.90
46490;DHT22;32204;49.160;8.580;2022-11-20T01:54:01;6.90;99.90
46490;DHT22;32204;49.160;8.580;2022-11-20T01:56:29;7.00;99.90
46490;DHT22;32204;49.160;8.580;2022-11-20T01:58:58;7.00;99.90
46490;DHT22;32204;49.160;8.580;2022-11-20T02:01:26;7.10;99.90
46490;DHT22;32204;49.160;8.580;2022-11-20T02:03:52;7.10;99.90
46490;DHT22;32204;49.160;8.580;2022-11-20T02:06:25;7.20;99.90
46490;DHT22;32204;49.160;8.580;2022-11-20T02:08:53;7.20;99.90
46490;DHT22;32204;49.160;8.580;2022-11-20T02:11:20;7.20;99.90
46490;DHT22;32204;49.160;8.580;2022-11-20T02:13:46;7.20;99.90
46490;DHT22;32204;49.160;8.580;2022-11-20T02:16:30;7.20;99.90
46490;DHT22;32204;49.160;8.580;2022-11-20T02:18:58;7.00;99.90
46490;DHT22;32204;49.160;8.580;2022-11-20T02:21:33;7.10;99.90
46490;DHT22;32204;49.160;8.580;2022-11-20T02:24:08;7.10;99.90
46490;DHT22;32204;49.160;8.580;2022-11-20T02:26:45;7.00;99.90
46490;DHT22;32204;49.160;8.580;2022-11-20T02:29:11;7.00;99.90
46490;DHT22;32204;49.160;8.580;2022-11-20T02:31:40;7.00;99.90
46490;DHT22;32204;49.160;8.580;2022-11-20T02:34:06;7.00;99.90
46490;DHT22;32204;49.160;8.580;2022-11-20T02:36:32;7.10;99.90
46490;DHT22;32204;49.160;8.580;2022-11-20T02:38:58;7.20;99.90
46490;DHT22;32204;49.160;8.580;2022-11-20T02:41:31;7.30;99.90
46490;DHT22;32204;49.160;8.580;2022-11-20T02:43:57;7.30;99.90
46490;DHT22;32204;49.160;8.580;2022-11-20T02:46:22;7.40;99.90
46490;DHT22;32204;49.160;8.580;2022-11-20T02:48:48;7.40;99.90
46490;DHT22;32204;49.160;8.580;2022-11-20T02:51:13;7.40;99.90
46490;DHT22;32204;49.160;8.580;2022-11-20T02:53:39;7.50;99.90
46490;DHT22;32204;49.160;8.580;2022-11-20T02:56:05;7.50;99.90
46490;DHT22;32204;49.160;8.580;2022-11-20T02:58:31;7.60;99.90
46490;DHT22;32204;49.160;8.580;2022-11-20T03:00:56;7.60;99.90
46490;DHT22;32204;49.160;8.580;2022-11-20T03:03:22;7.50;99.90
46490;DHT22;32204;49.160;8.580;2022-11-20T03:05:47;7.40;99.90
46490;DHT22;32204;49.160;8.580;2022-11-20T03:08:13;7.50;99.90
46490;DHT22;32204;49.160;8.580;2022-11-20T03:10:39;7.60;99.90
46490;DHT22;32204;49.160;8.580;2022-11-20T03:13:04;7.70;99.90
46490;DHT22;32204;49.160;8.580;2022-11-20T03:15:30;7.70;99.90
46490;DHT22;32204;49.160;8.580;2022-11-20T03:17:56;7.70;99.90
46490;DHT22;32204;49.160;8.580;2022-11-20T03:20:22;7.60;99.90
46490;DHT22;32204;49.160;8.580;2022-11-20T03:22:47;7.60;99.90
46490;DHT22;32204;49.160;8.580;2022-11-20T03:25:13;7.50;99.90
46490;DHT22;32204;49.160;8.580;2022-11-20T03:27:38;7.50;99.90
46490;DHT22;32204;49.160;8.580;2022-11-20T03:30:04;7.50;99.90
46490;DHT22;32204;49.160;8.580;2022-11-20T03:32:31;7.50;99.90
46490;DHT22;32204;49.160;8.580;2022-11-20T03:34:56;7.60;99.90
46490;DHT22;32204;49.160;8.580;2022-11-20T03:37:22;7.60;99.90
46490;DHT22;32204;49.160;8.580;2022-11-20T03:39:47;7.60;99.90
46490;DHT22;32204;49.160;8.580;2022-11-20T03:42:13;7.60;99.90
46490;DHT22;32204;49.160;8.580;2022-11-20T03:44:57;7.60;99.90
46490;DHT22;32204;49.160;8.580;2022-11-20T03:47:23;7.70;99.90
46490;DHT22;32204;49.160;8.580;2022-11-20T03:49:48;7.60;99.90
46490;DHT22;32204;49.160;8.580;2022-11-20T03:52:14;7.50;99.90
46490;DHT22;32204;49.160;8.580;2022-11-20T03:54:39;7.60;99.90
46490;DHT22;32204;49.160;8.580;2022-11-20T03:57:05;7.50;99.90
46490;DHT22;32204;49.160;8.580;2022-11-20T03:59:30;7.50;99.90
46490;DHT22;32204;49.160;8.580;2022-11-20T04:01:56;7.40;99.90
46490;DHT22;32204;49.160;8.580;2022-11-20T04:04:22;7.50;99.90
46490;DHT22;32204;49.160;8.580;2022-11-20T04:06:47;7.60;99.90
46490;DHT22;32204;49.160;8.580;2022-11-20T04:09:13;7.70;99.90
46490;DHT22;32204;49.160;8.580;2022-11-20T04:11:40;7.80;99.90
46490;DHT22;32204;49.160;8.580;2022-11-20T04:14:11;7.80;99.90
46490;DHT22;32204;49.160;8.580;2022-11-20T04:16:37;7.80;99.90
46490;DHT22;32204;49.160;8.580;2022-11-20T04:19:06;7.80;99.90
46490;DHT22;32204;49.160;8.580;2022-11-20T04:21:31;7.80;99.90
46490;DHT22;32204;49.160;8.580;2022-11-20T04:23:58;7.80;99.90
46490;DHT22;32204;49.160;8.580;2022-11-20T04:26:25;7.80;99.90
46490;DHT22;32204;49.160;8.580;2022-11-20T04:28:51;7.90;99.90
46490;DHT22;32204;49.160;8.580;2022-11-20T04:31:26;7.90;99.90
46490;DHT22;32204;49.160;8.580;2022-11-20T04:33:51;7.90;99.90
46490;DHT22;32204;49.160;8.580;2022-11-20T04:36:22;8.00;99.90
46490;DHT22;32204;49.160;8.580;2022-11-20T04:38:55;8.00;99.90
46490;DHT22;32204;49.160;8.580;2022-11-20T04:41:22;8.00;99.90
46490;DHT22;32204;49.160;8.580;2022-11-20T04:43:50;8.00;99.90
46490;DHT22;32204;49.160;8.580;2022-11-20T04:46:17;8.10;99.90
46490;DHT22;32204;49.160;8.580;2022-11-20T04:48:42;8.10;99.90
46490;DHT22;32204;49.160;8.580;2022-11-20T04:51:08;8.00;99.90
46490;DHT22;32204;49.160;8.580;2022-11-20T04:53:33;8.00;99.90
46490;DHT22;32204;49.160;8.580;2022-11-20T04:56:07;8.00;99.90
46490;DHT22;32204;49.160;8.580;2022-11-20T04:58:34;8.00;99.90
46490;DHT22;32204;49.160;8.580;2022-11-20T05:01:03;8.00;99.90
46490;DHT22;32204;49.160;8.580;2022-11-20T05:03:29;8.00;99.90
46490;DHT22;32204;49.160;8.580;2022-11-20T05:05:55;8.00;99.90
46490;DHT22;32204;49.160;8.580;2022-11-20T05:08:20;8.00;99.90
46490;DHT22;32204;49.160;8.580;2022-11-20T05:10:47;8.00;99.90
46490;DHT22;32204;49.160;8.580;2022-11-20T05:13:12;8.00;99.90
46490;DHT22;32204;49.160;8.580;2022-11-20T05:15:38;8.10;99.90
46490;DHT22;32204;49.160;8.580;2022-11-20T05:18:04;8.10;99.90
46490;DHT22;32204;49.160;8.580;2022-11-20T05:20:29;8.10;99.90
46490;DHT22;32204;49.160;8.580;2022-11-20T05:22:58;8.10;99.90
46490;DHT22;32204;49.160;8.580;2022-11-20T05:25:23;8.10;99.90
46490;DHT22;32204;49.160;8.580;2022-11-20T05:27:49;8.10;99.90
46490;DHT22;32204;49.160;8.580;2022-11-20T05:30:14;8.10;99.90
46490;DHT22;32204;49.160;8.580;2022-11-20T05:32:40;8.10;99.90
46490;DHT22;32204;49.160;8.580;2022-11-20T05:35:06;8.10;99.90
46490;DHT22;32204;49.160;8.580;2022-11-20T05:37:32;8.10;99.90
46490;DHT22;32204;49.160;8.580;2022-11-20T05:39:57;8.10;99.90
46490;DHT22;32204;49.160;8.580;2022-11-20T05:42:23;8.20;99.90
46490;DHT22;32204;49.160;8.580;2022-11-20T05:44:58;8.10;99.90
46490;DHT22;32204;49.160;8.580;2022-11-20T05:47:25;8.10;99.90
46490;DHT22;32204;49.160;8.580;2022-11-20T05:49:51;8.20;99.90
46490;DHT22;32204;49.160;8.580;2022-11-20T05:52:17;8.10;99.90
46490;DHT22;32204;49.160;8.580;2022-11-20T05:54:42;8.10;99.90
46490;DHT22;32204;49.160;8.580;2022-11-20T05:57:08;8.20;99.90
46490;DHT22;32204;49.160;8.580;2022-11-20T05:59:33;8.20;99.90
46490;DHT22;32204;49.160;8.580;2022-11-20T06:01:59;8.20;99.90
46490;DHT22;32204;49.160;8.580;2022-11-20T06:04:24;8.20;99.90
46490;DHT22;32204;49.160;8.580;2022-11-20T06:06:50;8.20;99.90
46490;DHT22;32204;49.160;8.580;2022-11-20T06:09:16;8.10;99.90
46490;DHT22;32204;49.160;8.580;2022-11-20T06:11:41;8.10;99.90
46490;DHT22;32204;49.160;8.580;2022-11-20T06:14:07;8.00;99.90
46490;DHT22;32204;49.160;8.580;2022-11-20T06:16:32;8.00;99.90
46490;DHT22;32204;49.160;8.580;2022-11-20T06:18:58;8.00;99.90
46490;DHT22;32204;49.160;8.580;2022-11-20T06:21:24;8.00;99.90
46490;DHT22;32204;49.160;8.580;2022-11-20T06:23:51;8.00;99.90
46490;DHT22;32204;49.160;8.580;2022-11-20T06:26:24;8.00;99.90
46490;DHT22;32204;49.160;8.580;2022-11-20T06:28:50;8.00;99.90
46490;DHT22;32204;49.160;8.580;2022-11-20T06:31:20;8.00;99.90
46490;DHT22;32204;49.160;8.580;2022-11-20T06:33:46;7.90;99.90
46490;DHT22;32204;49.160;8.580;2022-11-20T06:36:13;7.90;99.90
46490;DHT22;32204;49.160;8.580;2022-11-20T06:38:40;7.90;99.90
46490;DHT22;32204;49.160;8.580;2022-11-20T06:41:06;7.90;99.90
46490;DHT22;32204;49.160;8.580;2022-11-20T06:43:32;8.00;99.90
46490;DHT22;32204;49.160;8.580;2022-11-20T06:45:59;8.00;99.90
46490;DHT22;32204;49.160;8.580;2022-11-20T06:48:26;7.90;99.90
46490;DHT22;32204;49.160;8.580;2022-11-20T06:50:52;7.90;99.90
46490;DHT22;32204;49.160;8.580;2022-11-20T06:53:18;7.90;99.90
46490;DHT22;32204;49.160;8.580;2022-11-20T06:55:45;7.90;99.90
46490;DHT22;32204;49.160;8.580;2022-11-20T06:58:12;7.90;99.90
46490;DHT22;32204;49.160;8.580;2022-11-20T07:00:38;7.90;99.90
46490;DHT22;32204;49.160;8.580;2022-11-20T07:03:04;7.90;99.90
46490;DHT22;32204;49.160;8.580;2022-11-20T07:05:30;7.80;99.90
46490;DHT22;32204;49.160;8.580;2022-11-20T07:07:56;7.80;99.90
46490;DHT22;32204;49.160;8.580;2022-11-20T07:10:22;7.90;99.90
46490;DHT22;32204;49.160;8.580;2022-11-20T07:12:51;7.90;99.90
46490;DHT22;32204;49.160;8.580;2022-11-20T07:15:18;7.80;99.90
46490;DHT22;32204;49.160;8.580;2022-11-20T07:17:44;7.80;99.90
46490;DHT22;32204;49.160;8.580;2022-11-20T07:20:10;7.80;99.90
46490;DHT22;32204;49.160;8.580;2022-11-20T07:22:36;7.80;99.90
46490;DHT22;32204;49.160;8.580;2022-11-20T07:25:01;7.70;99.90
46490;DHT22;32204;49.160;8.580;2022-11-20T07:27:27;7.80;99.90
46490;DHT22;32204;49.160;8.580;2022-11-20T07:29:53;7.80;99.90
46490;DHT22;32204;49.160;8.580;2022-11-20T07:32:19;7.90;99.90
46490;DHT22;32204;49.160;8.580;2022-11-20T07:34:44;7.90;99.90
46490;DHT22;32204;49.160;8.580;2022-11-20T07:37:10;7.90;99.90
46490;DHT22;32204;49.160;8.580;2022-11-20T07:39:36;7.90;99.90
46490;DHT22;32204;49.160;8.580;2022-11-20T07:42:01;8.00;99.90
46490;DHT22;32204;49.160;8.580;2022-11-20T07:44:27;8.10;99.90
46490;DHT22;32204;49.160;8.580;2022-11-20T07:46:52;8.00;99.90
46490;DHT22;32204;49.160;8.580;2022-11-20T07:49:18;7.90;99.90
46490;DHT22;32204;49.160;8.580;2022-11-20T07:51:43;8.00;99.90
46490;DHT22;32204;49.160;8.580;2022-11-20T07:54:09;8.00;99.90
46490;DHT22;32204;49.160;8.580;2022-11-20T07:56:34;8.10;99.90
46490;DHT22;32204;49.160;8.580;2022-11-20T07:59:00;8.10;99.90
46490;DHT22;32204;49.160;8.580;2022-11-20T08:01:25;8.00;99.90
46490;DHT22;32204;49.160;8.580;2022-11-20T08:03:51;8.00;99.90
46490;DHT22;32204;49.160;8.580;2022-11-20T08:06:17;7.90;99.90
46490;DHT22;32204;49.160;8.580;2022-11-20T08:08:43;8.00;99.90
46490;DHT22;32204;49.160;8.580;2022-11-20T08:11:09;8.00;99.90
46490;DHT22;32204;49.160;8.580;2022-11-20T08:13:53;8.00;99.90
46490;DHT22;32204;49.160;8.580;2022-11-20T08:16:41;8.00;99.90
46490;DHT22;32204;49.160;8.580;2022-11-20T08:19:07;7.90;99.90
46490;DHT22;32204;49.160;8.580;2022-11-20T08:21:33;7.80;99.90
46490;DHT22;32204;49.160;8.580;2022-11-20T08:23:59;7.80;99.90
46490;DHT22;32204;49.160;8.580;2022-11-20T08:26:25;7.80;99.90
46490;DHT22;32204;49.160;8.580;2022-11-20T08:28:57;7.90;99.90
46490;DHT22;32204;49.160;8.580;2022-11-20T08:31:27;7.90;99.90
46490;DHT22;32204;49.160;8.580;2022-11-20T08:33:53;7.80;99.90
46490;DHT22;32204;49.160;8.580;2022-11-20T08:36:20;7.90;99.90
46490;DHT22;32204;49.160;8.580;2022-11-20T08:38:53;7.90;99.90
46490;DHT22;32204;49.160;8.580;2022-11-20T08:41:20;8.00;99.90
46490;DHT22;32204;49.160;8.580;2022-11-20T08:44:02;8.10;99.90
46490;DHT22;32204;49.160;8.580;2022-11-20T08:46:35;8.10;99.90
46490;DHT22;32204;49.160;8.580;2022-11-20T08:49:03;8.20;99.90
46490;DHT22;32204;49.160;8.580;2022-11-20T08:51:28;8.30;99.90
46490;DHT22;32204;49.160;8.580;2022-11-20T08:53:54;8.20;99.90
46490;DHT22;32204;49.160;8.580;2022-11-20T08:56:20;8.20;99.90
46490;DHT22;32204;49.160;8.580;2022-11-20T08:58:45;8.10;99.90
46490;DHT22;32204;49.160;8.580;2022-11-20T09:01:11;8.20;99.90
46490;DHT22;32204;49.160;8.580;2022-11-20T09:03:37;8.20;99.90
46490;DHT22;32204;49.160;8.580;2022-11-20T09:06:05;8.20;99.90
46490;DHT22;32204;49.160;8.580;2022-11-20T09:08:31;8.20;99.90
46490;DHT22;32204;49.160;8.580;2022-11-20T09:10:58;8.20;99.90
46490;DHT22;32204;49.160;8.580;2022-11-20T09:13:25;8.20;99.90
46490;DHT22;32204;49.160;8.580;2022-11-20T09:15:55;8.20;99.90
46490;DHT22;32204;49.160;8.580;2022-11-20T09:18:22;8.30;99.90
46490;DHT22;32204;49.160;8.580;2022-11-20T09:20:47;8.40;99.90
46490;DHT22;32204;49.160;8.580;2022-11-20T09:23:14;8.50;99.90
46490;DHT22;32204;49.160;8.580;2022-11-20T09:25:40;8.60;99.90
46490;DHT22;32204;49.160;8.580;2022-11-20T09:28:05;8.60;99.90
46490;DHT22;32204;49.160;8.580;2022-11-20T09:30:31;8.60;99.90
46490;DHT22;32204;49.160;8.580;2022-11-20T09:32:56;8.70;99.90
46490;DHT22;32204;49.160;8.580;2022-11-20T09:35:22;8.70;99.90
46490;DHT22;32204;49.160;8.580;2022-11-20T09:37:48;8.60;99.90
46490;DHT22;32204;49.160;8.580;2022-11-20T09:40:22;8.50;99.90
46490;DHT22;32204;49.160;8.580;2022-11-20T09:48:21;8.70;99.90
46490;DHT22;32204;49.160;8.580;2022-11-20T09:53:46;8.90;99.90
46490;DHT22;32204;49.160;8.580;2022-11-20T09:56:17;8.80;99.90
46490;DHT22;32204;49.160;8.580;2022-11-20T09:58:52;8.90;99.90
46490;DHT22;32204;49.160;8.580;2022-11-20T10:01:22;9.00;99.90
46490;DHT22;32204;49.160;8.580;2022-11-20T10:06:32;9.00;99.90
46490;DHT22;32204;49.160;8.580;2022-11-20T10:11:48;8.90;99.90
46490;DHT22;32204;49.160;8.580;2022-11-20T10:23:08;9.00;99.90
46490;DHT22;32204;49.160;8.580;2022-11-20T10:25:48;8.90;99.90
46490;DHT22;32204;49.160;8.580;2022-11-20T10:31:35;8.80;99.90
46490;DHT22;32204;49.160;8.580;2022-11-20T10:34:06;8.70;99.90
46490;DHT22;32204;49.160;8.580;2022-11-20T10:36:43;8.60;99.90
46490;DHT22;32204;49.160;8.580;2022-11-20T10:41:54;8.70;99.90
46490;DHT22;32204;49.160;8.580;2022-11-20T10:44:29;8.80;99.90
46490;DHT22;32204;49.160;8.580;2022-11-20T10:47:18;8.80;99.90
46490;DHT22;32204;49.160;8.580;2022-11-20T10:49:46;9.00;99.90
46490;DHT22;32204;49.160;8.580;2022-11-20T10:55:40;9.30;99.90
46490;DHT22;32204;49.160;8.580;2022-11-20T10:58:14;9.40;99.90
46490;DHT22;32204;49.160;8.580;2022-11-20T11:00:42;9.40;99.90
46490;DHT22;32204;49.160;8.580;2022-11-20T11:03:26;9.50;99.90
46490;DHT22;32204;49.160;8.580;2022-11-20T11:06:08;9.30;99.90
46490;DHT22;32204;49.160;8.580;2022-11-20T11:08:38;9.40;99.90
46490;DHT22;32204;49.160;8.580;2022-11-20T11:11:26;9.40;99.90
46490;DHT22;32204;49.160;8.580;2022-11-20T11:13:53;9.60;99.90
46490;DHT22;32204;49.160;8.580;2022-11-20T11:16:24;9.60;99.90
46490;DHT22;32204;49.160;8.580;2022-11-20T11:18:50;9.60;99.90
46490;DHT22;32204;49.160;8.580;2022-11-20T11:21:23;9.70;99.90
46490;DHT22;32204;49.160;8.580;2022-11-20T11:24:02;9.80;99.90
46490;DHT22;32204;49.160;8.580;2022-11-20T11:26:28;9.90;99.90
46490;DHT22;32204;49.160;8.580;2022-11-20T11:28:59;9.90;99.90
46490;DHT22;32204;49.160;8.580;2022-11-20T11:31:26;10.00;99.90
46490;DHT22;32204;49.160;8.580;2022-11-20T11:34:03;9.90;99.90
46490;DHT22;32204;49.160;8.580;2022-11-20T11:36:28;9.80;99.90
46490;DHT22;32204;49.160;8.580;2022-11-20T11:38:54;9.70;99.90
46490;DHT22;32204;49.160;8.580;2022-11-20T11:41:30;9.70;99.90
46490;DHT22;32204;49.160;8.580;2022-11-20T11:44:20;9.70;99.90
46490;DHT22;32204;49.160;8.580;2022-11-20T11:47:10;9.80;99.90
46490;DHT22;32204;49.160;8.580;2022-11-20T11:49:36;9.90;99.90
46490;DHT22;32204;49.160;8.580;2022-11-20T11:52:15;9.90;99.90
46490;DHT22;32204;49.160;8.580;2022-11-20T11:55:03;9.80;99.90
46490;DHT22;32204;49.160;8.580;2022-11-20T11:57:54;9.60;99.90
46490;DHT22;32204;49.160;8.580;2022-11-20T12:00:22;9.60;99.90
46490;DHT22;32204;49.160;8.580;2022-11-20T12:03:33;9.50;99.90
46490;DHT22;32204;49.160;8.580;2022-11-20T12:05:58;9.50;99.90
46490;DHT22;32204;49.160;8.580;2022-11-20T12:08:43;9.60;99.90
46490;DHT22;32204;49.160;8.580;2022-11-20T12:13:55;9.60;99.90
46490;DHT22;32204;49.160;8.580;2022-11-20T12:16:23;9.70;99.90
46490;DHT22;32204;49.160;8.580;2022-11-20T12:18:51;9.70;99.90
46490;DHT22;32204;49.160;8.580;2022-11-20T12:26:35;9.90;71.40
46490;DHT22;32204;49.160;8.580;2022-11-20T12:39:34;10.40;99.90
46490;DHT22;32204;49.160;8.580;2022-11-20T12:42:31;10.60;99.90
46490;DHT22;32204;49.160;8.580;2022-11-20T12:45:45;10.80;99.90
46490;DHT22;32204;49.160;8.580;2022-11-20T12:48:19;10.90;1.00
46490;DHT22;32204;49.160;8.580;2022-11-20T13:06:44;10.40;99.90
46490;DHT22;32204;49.160;8.580;2022-11-20T13:09:13;10.20;33.30
46490;DHT22;32204;49.160;8.580;2022-11-20T13:11:59;10.10;99.90
46490;DHT22;32204;49.160;8.580;2022-11-20T13:14:39;10.00;99.90
46490;DHT22;32204;49.160;8.580;2022-11-20T13:17:09;10.00;15.80
46490;DHT22;32204;49.160;8.580;2022-11-20T13:19:36;10.00;99.90
46490;DHT22;32204;49.160;8.580;2022-11-20T13:22:03;10.10;1.00
46490;DHT22;32204;49.160;8.580;2022-11-20T13:24:30;10.00;99.90
46490;DHT22;32204;49.160;8.580;2022-11-20T13:27:19;10.00;99.90
46490;DHT22;32204;49.160;8.580;2022-11-20T13:29:58;9.90;99.90
46490;DHT22;32204;49.160;8.580;2022-11-20T13:32:24;9.90;99.90
46490;DHT22;32204;49.160;8.580;2022-11-20T13:34:58;10.00;99.90
46490;DHT22;32204;49.160;8.580;2022-11-20T13:37:36;10.10;8.60
46490;DHT22;32204;49.160;8.580;2022-11-20T13:42:38;10.20;99.90
46490;DHT22;32204;49.160;8.580;2022-11-20T13:45:25;10.20;99.90
46490;DHT22;32204;49.160;8.580;2022-11-20T13:47:53;10.30;1.00
46490;DHT22;32204;49.160;8.580;2022-11-20T13:50:19;10.30;1.00
46490;DHT22;32204;49.160;8.580;2022-11-20T13:55:54;10.20;99.90
46490;DHT22;32204;49.160;8.580;2022-11-20T14:01:09;10.30;99.90
46490;DHT22;32204;49.160;8.580;2022-11-20T14:03:36;10.20;56.80
46490;DHT22;32204;49.160;8.580;2022-11-20T14:06:05;10.20;1.00
46490;DHT22;32204;49.160;8.580;2022-11-20T14:08:47;10.10;99.90
46490;DHT22;32204;49.160;8.580;2022-11-20T14:11:22;10.10;99.90
46490;DHT22;32204;49.160;8.580;2022-11-20T14:13:54;10.00;99.90
46490;DHT22;32204;49.160;8.580;2022-11-20T14:16:21;10.00;99.90
46490;DHT22;32204;49.160;8.580;2022-11-20T14:18:46;10.00;99.90
46490;DHT22;32204;49.160;8.580;2022-11-20T14:21:21;9.90;1.00
46490;DHT22;32204;49.160;8.580;2022-11-20T14:23:47;9.90;43.20
46490;DHT22;32204;49.160;8.580;2022-11-20T14:26:17;9.90;99.90
46490;DHT22;32204;49.160;8.580;2022-11-20T14:28:48;9.90;1.00
46490;DHT22;32204;49.160;8.580;2022-11-20T14:31:25;9.80;1.00
46490;DHT22;32204;49.160;8.580;2022-11-20T14:33:53;9.80;1.00
46490;DHT22;32204;49.160;8.580;2022-11-20T14:36:22;9.90;99.90
46490;DHT22;32204;49.160;8.580;2022-11-20T14:38:49;9.90;99.90
46490;DHT22;32204;49.160;8.580;2022-11-20T14:41:22;9.80;99.90
46490;DHT22;32204;49.160;8.580;2022-11-20T14:43:56;9.80;25.70
46490;DHT22;32204;49.160;8.580;2022-11-20T14:46:22;9.70;99.90
46490;DHT22;32204;49.160;8.580;2022-11-20T14:48:51;9.60;1.00
46490;DHT22;32204;49.160;8.580;2022-11-20T14:51:35;9.60;99.90
46490;DHT22;32204;49.160;8.580;2022-11-20T14:54:16;9.50;99.90
46490;DHT22;32204;49.160;8.580;2022-11-20T14:56:56;9.50;99.90
46490;DHT22;32204;49.160;8.580;2022-11-20T14:59:24;9.60;99.90
46490;DHT22;32204;49.160;8.580;2022-11-20T15:01:59;9.60;1.00
46490;DHT22;32204;49.160;8.580;2022-11-20T15:04:25;9.60;1.20
46490;DHT22;32204;49.160;8.580;2022-11-20T15:06:55;9.60;1.00
46490;DHT22;32204;49.160;8.580;2022-11-20T15:09:21;9.50;1.00
46490;DHT22;32204;49.160;8.580;2022-11-20T15:11:54;9.50;1.00
46490;DHT22;32204;49.160;8.580;2022-11-20T15:14:20;9.50;99.90
46490;DHT22;32204;49.160;8.580;2022-11-20T15:16:46;9.40;99.90
46490;DHT22;32204;49.160;8.580;2022-11-20T15:19:20;9.30;56.20
46490;DHT22;32204;49.160;8.580;2022-11-20T15:21:46;9.30;1.00
46490;DHT22;32204;49.160;8.580;2022-11-20T15:24:12;9.40;99.90
46490;DHT22;32204;49.160;8.580;2022-11-20T15:26:38;9.40;99.90
46490;DHT22;32204;49.160;8.580;2022-11-20T15:29:12;9.50;99.90
46490;DHT22;32204;49.160;8.580;2022-11-20T15:31:39;9.40;65.70
46490;DHT22;32204;49.160;8.580;2022-11-20T15:34:14;9.30;1.00
46490;DHT22;32204;49.160;8.580;2022-11-20T15:36:41;9.30;1.00
46490;DHT22;32204;49.160;8.580;2022-11-20T15:39:07;9.30;1.00
46490;DHT22;32204;49.160;8.580;2022-11-20T15:41:37;9.30;1.00
46490;DHT22;32204;49.160;8.580;2022-11-20T15:44:03;9.30;99.90
46490;DHT22;32204;49.160;8.580;2022-11-20T15:46:31;9.30;1.00
46490;DHT22;32204;49.160;8.580;2022-11-20T15:49:02;9.30;99.90
46490;DHT22;32204;49.160;8.580;2022-11-20T15:51:34;9.40;1.00
46490;DHT22;32204;49.160;8.580;2022-11-20T15:54:01;9.30;99.90
46490;DHT22;32204;49.160;8.580;2022-11-20T15:56:27;9.30;99.90
46490;DHT22;32204;49.160;8.580;2022-11-20T15:58:52;9.30;99.90
46490;DHT22;32204;49.160;8.580;2022-11-20T16:01:20;9.30;1.00
46490;DHT22;32204;49.160;8.580;2022-11-20T16:03:46;9.30;99.90
46490;DHT22;32204;49.160;8.580;2022-11-20T16:06:12;9.20;99.90
46490;DHT22;32204;49.160;8.580;2022-11-20T16:08:38;9.30;1.00
46490;DHT22;32204;49.160;8.580;2022-11-20T16:11:04;9.30;1.00
46490;DHT22;32204;49.160;8.580;2022-11-20T16:13:31;9.30;1.00
46490;DHT22;32204;49.160;8.580;2022-11-20T16:16:28;9.20;99.90
46490;DHT22;32204;49.160;8.580;2022-11-20T16:18:56;9.30;1.00
46490;DHT22;32204;49.160;8.580;2022-11-20T16:21:21;9.30;1.00
46490;DHT22;32204;49.160;8.580;2022-11-20T16:23:53;9.30;1.00
46490;DHT22;32204;49.160;8.580;2022-11-20T16:26:18;9.20;99.90
46490;DHT22;32204;49.160;8.580;2022-11-20T16:28:46;9.40;58.20
46490;DHT22;32204;49.160;8.580;2022-11-20T16:31:14;9.40;1.00
46490;DHT22;32204;49.160;8.580;2022-11-20T16:33:40;9.30;99.90
46490;DHT22;32204;49.160;8.580;2022-11-20T16:36:13;9.30;99.90
46490;DHT22;32204;49.160;8.580;2022-11-20T16:38:39;9.40;99.90
46490;DHT22;32204;49.160;8.580;2022-11-20T16:41:06;9.30;99.90
46490;DHT22;32204;49.160;8.580;2022-11-20T16:43:53;9.30;99.90
46490;DHT22;32204;49.160;8.580;2022-11-20T16:46:21;9.40;1.00
46490;DHT22;32204;49.160;8.580;2022-11-20T16:49:01;9.30;99.90
46490;DHT22;32204;49.160;8.580;2022-11-20T16:51:29;9.40;99.90
46490;DHT22;32204;49.160;8.580;2022-11-20T16:53:55;9.40;28.50
46490;DHT22;32204;49.160;8.580;2022-11-20T16:56:23;9.40;99.90
46490;DHT22;32204;49.160;8.580;2022-11-20T16:58:49;9.40;1.00
46490;DHT22;32204;49.160;8.580;2022-11-20T17:01:18;9.40;1.00
46490;DHT22;32204;49.160;8.580;2022-11-20T17:03:47;9.40;99.90
46490;DHT22;32204;49.160;8.580;2022-11-20T17:06:19;9.30;99.90
46490;DHT22;32204;49.160;8.580;2022-11-20T17:08:46;9.30;99.90
46490;DHT22;32204;49.160;8.580;2022-11-20T17:11:16;9.40;1.00
46490;DHT22;32204;49.160;8.580;2022-11-20T17:13:43;9.40;94.90
46490;DHT22;32204;49.160;8.580;2022-11-20T17:16:20;9.40;99.50